createdAt,value
2019-03-20T00:00:36.893Z,85.30
2019-03-20T00:02:38.135Z,85.90
2019-03-20T00:04:49.223Z,85.40
2019-03-20T00:06:42.575Z,85.80
2019-03-20T00:08:43.724Z,85.60
2019-03-20T00:10:44.954Z,85.80
2019-03-20T00:12:46.385Z,85.50
2019-03-20T00:14:47.531Z,87.60
2019-03-20T00:16:49.685Z,87.70
2019-03-20T00:18:50.940Z,87.40
2019-03-20T00:20:52.075Z,87.50
2019-03-20T00:22:53.240Z,87.80
2019-03-20T00:24:54.380Z,87.30
2019-03-20T00:26:57.421Z,87.90
2019-03-20T00:28:58.820Z,88.30
2019-03-20T00:31:00.007Z,87.30
2019-03-20T00:33:01.469Z,88.20
2019-03-20T00:35:03.618Z,87.30
2019-03-20T00:37:05.182Z,88.00
2019-03-20T00:39:06.836Z,87.40
2019-03-20T00:41:07.862Z,86.90
2019-03-20T00:43:09.017Z,87.60
2019-03-20T00:45:12.358Z,87.10
2019-03-20T00:47:13.753Z,88.20
2019-03-20T00:49:14.897Z,87.70
2019-03-20T00:51:16.036Z,89.10
2019-03-20T00:53:17.487Z,87.70
2019-03-20T00:55:18.933Z,87.90
2019-03-20T00:57:20.091Z,87.70
2019-03-20T00:59:21.236Z,87.90
2019-03-20T01:01:22.378Z,87.40
2019-03-20T01:03:23.527Z,88.10
2019-03-20T01:05:27.467Z,88.40
2019-03-20T01:07:28.616Z,87.90
2019-03-20T01:09:30.173Z,87.70
2019-03-20T01:11:31.393Z,88.20
2019-03-20T01:13:32.558Z,88.50
2019-03-20T01:15:33.947Z,88.60
2019-03-20T01:17:35.083Z,88.50
2019-03-20T01:19:36.233Z,88.30
2019-03-20T01:21:37.373Z,88.90
2019-03-20T01:23:38.537Z,89.30
2019-03-20T01:25:40.018Z,89.50
2019-03-20T01:27:41.150Z,89.90
2019-03-20T01:29:42.658Z,89.50
2019-03-20T01:31:43.804Z,89.20
2019-03-20T01:33:45.284Z,88.50
2019-03-20T01:35:46.505Z,87.90
2019-03-20T01:37:47.642Z,87.60
2019-03-20T01:39:48.803Z,87.40
2019-03-20T01:41:50.026Z,86.90
2019-03-20T01:43:51.182Z,87.40
2019-03-20T01:45:52.317Z,87.10
2019-03-20T01:47:53.545Z,88.80
2019-03-20T01:49:55.010Z,87.90
2019-03-20T01:51:56.146Z,87.80
2019-03-20T01:53:57.390Z,88.20
2019-03-20T01:55:58.538Z,87.60
2019-03-20T01:57:59.766Z,87.40
2019-03-20T02:00:00.973Z,88.00
2019-03-20T02:02:02.301Z,87.90
2019-03-20T02:04:03.454Z,88.00
2019-03-20T02:06:04.770Z,87.90
2019-03-20T02:08:07.111Z,87.80
2019-03-20T02:10:13.293Z,88.20
2019-03-20T02:12:14.709Z,88.20
2019-03-20T02:14:15.873Z,89.10
2019-03-20T02:16:17.009Z,89.60
2019-03-20T02:18:18.155Z,89.90
2019-03-20T02:20:19.990Z,90.00
2019-03-20T02:22:21.137Z,90.30
2019-03-20T02:24:22.286Z,90.20
2019-03-20T02:26:23.485Z,90.40
2019-03-20T02:28:24.629Z,90.30
2019-03-20T02:30:25.817Z,90.00
2019-03-20T02:32:27.070Z,90.00
2019-03-20T02:34:28.586Z,90.10
2019-03-20T02:36:29.807Z,90.70
2019-03-20T02:38:30.953Z,90.50
2019-03-20T02:40:32.098Z,90.00
2019-03-20T02:42:33.242Z,89.80
2019-03-20T02:44:34.690Z,89.00
2019-03-20T02:46:35.841Z,88.60
2019-03-20T02:48:37.073Z,89.20
2019-03-20T02:50:38.230Z,89.20
2019-03-20T02:52:39.385Z,89.10
2019-03-20T02:54:40.627Z,88.40
2019-03-20T02:56:42.063Z,88.60
2019-03-20T02:58:43.486Z,89.00
2019-03-20T03:00:44.716Z,88.70
2019-03-20T03:02:45.869Z,89.50
2019-03-20T03:04:47.093Z,89.20
2019-03-20T03:06:48.254Z,89.60
2019-03-20T03:08:49.689Z,89.50
2019-03-20T03:10:50.854Z,89.70
2019-03-20T03:12:52.078Z,89.60
2019-03-20T03:14:53.315Z,89.80
2019-03-20T03:16:54.457Z,90.20
2019-03-20T03:18:55.601Z,89.60
2019-03-20T03:20:57.042Z,90.00
2019-03-20T03:22:58.194Z,90.10
2019-03-20T03:24:59.671Z,90.20
2019-03-20T03:27:00.844Z,90.60
2019-03-20T03:29:02.078Z,90.30
2019-03-20T03:31:03.292Z,90.40
2019-03-20T03:33:04.506Z,90.30
2019-03-20T03:35:06.111Z,90.60
2019-03-20T03:37:07.424Z,90.60
2019-03-20T03:39:08.630Z,90.40
2019-03-20T03:41:10.183Z,90.20
2019-03-20T03:43:11.199Z,90.50
2019-03-20T03:45:14.051Z,90.30
2019-03-20T03:47:15.195Z,90.30
2019-03-20T03:49:16.335Z,90.90
2019-03-20T03:51:17.734Z,90.50
2019-03-20T03:53:19.191Z,90.30
2019-03-20T03:55:20.447Z,90.10
2019-03-20T03:57:21.706Z,89.70
2019-03-20T03:59:22.841Z,90.00
2019-03-20T04:01:23.990Z,89.60
2019-03-20T04:03:25.381Z,89.50
2019-03-20T04:05:26.531Z,89.60
2019-03-20T04:07:27.673Z,89.80
2019-03-20T04:09:28.815Z,89.70
2019-03-20T04:11:30.247Z,90.20
2019-03-20T04:13:31.691Z,90.20
2019-03-20T04:15:36.254Z,90.20
2019-03-20T04:17:35.877Z,90.30
2019-03-20T04:19:37.012Z,90.30
2019-03-20T04:21:38.169Z,90.00
2019-03-20T04:23:39.391Z,90.30
2019-03-20T04:25:40.575Z,90.00
2019-03-20T04:27:41.718Z,90.30
2019-03-20T04:29:43.292Z,90.50
2019-03-20T04:31:44.517Z,90.60
2019-03-20T04:33:45.987Z,90.50
2019-03-20T04:35:47.154Z,90.40
2019-03-20T04:37:48.294Z,90.30
2019-03-20T04:39:49.780Z,90.00
2019-03-20T04:41:50.944Z,90.00
2019-03-20T04:43:52.167Z,90.00
2019-03-20T04:45:53.325Z,90.10
2019-03-20T04:47:54.746Z,90.30
2019-03-20T04:49:56.018Z,90.20
2019-03-20T04:51:57.266Z,90.40
2019-03-20T04:53:58.414Z,90.70
2019-03-20T04:55:59.569Z,90.80
2019-03-20T04:58:01.061Z,90.70
2019-03-20T05:00:08.451Z,90.90
2019-03-20T05:02:09.596Z,91.50
2019-03-20T05:04:11.035Z,91.50
2019-03-20T05:06:12.637Z,91.70
2019-03-20T05:08:13.647Z,91.90
2019-03-20T05:10:16.089Z,91.60
2019-03-20T05:12:17.250Z,91.30
2019-03-20T05:14:18.640Z,90.90
2019-03-20T05:16:20.125Z,91.00
2019-03-20T05:18:21.386Z,91.30
2019-03-20T05:20:22.823Z,91.50
2019-03-20T05:22:23.974Z,91.60
2019-03-20T05:24:25.192Z,91.80
2019-03-20T05:26:26.424Z,91.90
2019-03-20T05:28:27.700Z,91.90
2019-03-20T05:30:28.881Z,91.80
2019-03-20T05:32:30.082Z,91.70
2019-03-20T05:34:31.294Z,91.30
2019-03-20T05:36:32.850Z,91.40
2019-03-20T05:38:33.990Z,91.30
2019-03-20T05:40:35.211Z,91.40
2019-03-20T05:42:36.415Z,91.30
2019-03-20T05:44:37.631Z,91.40
2019-03-20T05:46:39.097Z,91.30
2019-03-20T05:48:40.243Z,91.20
2019-03-20T05:50:41.381Z,90.80
2019-03-20T05:52:42.535Z,90.70
2019-03-20T05:54:43.678Z,91.10
2019-03-20T05:56:44.839Z,91.30
2019-03-20T05:58:45.993Z,91.70
2019-03-20T06:00:47.142Z,91.60
2019-03-20T06:02:48.406Z,91.90
2019-03-20T06:04:49.837Z,91.80
2019-03-20T06:06:50.996Z,91.90
2019-03-20T06:08:52.195Z,92.10
2019-03-20T06:10:53.371Z,91.80
2019-03-20T06:12:54.794Z,92.00
2019-03-20T06:14:55.927Z,92.10
2019-03-20T06:16:57.082Z,92.20
2019-03-20T06:18:58.216Z,92.40
2019-03-20T06:20:59.382Z,92.50
2019-03-20T06:23:00.520Z,92.70
2019-03-20T06:25:02.120Z,92.50
2019-03-20T06:27:03.141Z,92.40
2019-03-20T06:29:04.639Z,92.60
2019-03-20T06:31:05.769Z,92.60
2019-03-20T06:33:06.997Z,92.50
2019-03-20T06:35:08.534Z,92.50
2019-03-20T06:37:09.900Z,92.60
2019-03-20T06:39:11.037Z,92.40
2019-03-20T06:41:12.269Z,92.70
2019-03-20T06:43:13.458Z,92.60
2019-03-20T06:45:21.544Z,92.60
2019-03-20T06:47:23.004Z,92.50
2019-03-20T06:49:24.541Z,92.50
2019-03-20T06:51:25.565Z,92.50
2019-03-20T06:53:27.109Z,92.80
2019-03-20T06:55:28.290Z,93.40
2019-03-20T06:57:29.479Z,93.10
2019-03-20T06:59:34.438Z,92.90
2019-03-20T07:01:35.614Z,92.80
2019-03-20T07:03:46.713Z,92.70
2019-03-20T07:05:51.663Z,93.00
2019-03-20T07:07:52.913Z,93.00
2019-03-20T07:10:06.403Z,93.70
2019-03-20T07:12:07.570Z,93.10
2019-03-20T07:14:08.712Z,95.00
2019-03-20T07:16:09.859Z,95.10
2019-03-20T07:18:11.358Z,95.60
2019-03-20T07:20:12.499Z,95.40
2019-03-20T07:22:13.645Z,94.80
2019-03-20T07:24:14.789Z,94.60
2019-03-20T07:26:15.939Z,94.90
2019-03-20T07:28:17.091Z,94.10
2019-03-20T07:30:18.545Z,93.20
2019-03-20T07:32:19.697Z,92.00
2019-03-20T07:34:21.234Z,91.70
2019-03-20T07:36:22.374Z,91.40
2019-03-20T07:38:23.532Z,90.90
2019-03-20T07:40:24.667Z,91.00
2019-03-20T07:42:25.814Z,90.20
2019-03-20T07:44:27.214Z,90.10
2019-03-20T07:46:28.551Z,90.00
2019-03-20T07:48:29.971Z,88.40
2019-03-20T07:50:31.158Z,87.30
2019-03-20T07:52:32.318Z,87.60
2019-03-20T07:54:33.537Z,87.60
2019-03-20T07:56:34.691Z,87.30
2019-03-20T07:58:35.844Z,86.90
2019-03-20T08:00:36.979Z,87.10
2019-03-20T08:02:38.422Z,86.30
2019-03-20T08:04:39.647Z,86.30
2019-03-20T08:06:40.882Z,87.00
2019-03-20T08:08:42.382Z,86.90
2019-03-20T08:10:43.517Z,85.40
2019-03-20T08:12:44.670Z,84.70
2019-03-20T08:14:45.806Z,83.90
2019-03-20T08:16:47.209Z,84.00
2019-03-20T08:18:48.350Z,82.90
2019-03-20T08:20:49.491Z,83.30
2019-03-20T08:22:50.686Z,81.80
2019-03-20T08:24:51.889Z,81.80
2019-03-20T08:26:53.022Z,81.90
2019-03-20T08:28:54.165Z,83.80
2019-03-20T08:30:55.310Z,81.40
2019-03-20T08:32:56.709Z,83.00
2019-03-20T08:34:57.967Z,82.10
2019-03-20T08:36:59.114Z,81.60
2019-03-20T08:39:00.266Z,80.20
2019-03-20T08:41:01.401Z,79.60
2019-03-20T08:43:02.628Z,79.60
2019-03-20T08:45:07.686Z,81.90
2019-03-20T08:47:09.034Z,80.40
2019-03-20T08:49:10.237Z,78.70
2019-03-20T08:51:11.728Z,78.30
2019-03-20T08:53:13.117Z,80.10
2019-03-20T08:55:15.568Z,78.40
2019-03-20T08:57:16.962Z,78.90
2019-03-20T08:59:18.238Z,79.00
2019-03-20T09:01:28.213Z,77.40
2019-03-20T09:03:22.513Z,76.40
2019-03-20T09:05:23.649Z,75.70
2019-03-20T09:07:24.785Z,75.30
2019-03-20T09:09:25.932Z,73.50
2019-03-20T09:11:27.070Z,72.50
2019-03-20T09:13:28.464Z,72.20
2019-03-20T09:15:29.622Z,72.90
2019-03-20T09:17:30.812Z,71.20
2019-03-20T09:19:32.058Z,72.00
2019-03-20T09:21:33.220Z,69.60
2019-03-20T09:23:34.370Z,67.90
2019-03-20T09:25:35.745Z,68.30
2019-03-20T09:27:36.885Z,70.70
2019-03-20T09:29:38.025Z,69.00
2019-03-20T09:31:39.413Z,69.00
2019-03-20T09:33:40.567Z,68.40
2019-03-20T09:35:41.949Z,69.60
2019-03-20T09:37:51.331Z,70.10
2019-03-20T09:39:46.140Z,69.30
2019-03-20T09:41:47.525Z,68.60
2019-03-20T09:43:48.693Z,68.80
2019-03-20T09:45:50.069Z,67.80
2019-03-20T09:47:51.469Z,68.60
2019-03-20T09:49:52.619Z,69.00
2019-03-20T09:51:54.009Z,66.60
2019-03-20T09:53:55.157Z,68.30
2019-03-20T09:55:56.554Z,68.90
2019-03-20T09:57:58.189Z,66.70
2019-03-20T09:59:59.321Z,66.90
2019-03-20T10:02:02.777Z,67.40
2019-03-20T10:04:03.611Z,68.20
2019-03-20T10:06:04.762Z,67.80
2019-03-20T10:08:05.894Z,67.50
2019-03-20T10:10:13.415Z,69.20
2019-03-20T10:12:14.607Z,69.60
2019-03-20T10:14:15.749Z,69.60
2019-03-20T10:16:16.898Z,68.50
2019-03-20T10:18:18.097Z,70.20
2019-03-20T10:20:20.065Z,69.20
2019-03-20T10:22:21.457Z,69.60
2019-03-20T10:24:22.607Z,69.40
2019-03-20T10:26:23.746Z,68.80
2019-03-20T10:28:24.890Z,69.70
2019-03-20T10:30:27.160Z,69.40
2019-03-20T10:32:28.337Z,68.50
2019-03-20T10:34:39.174Z,69.70
2019-03-20T10:36:32.543Z,69.00
2019-03-20T10:38:33.680Z,69.00
2019-03-20T10:40:34.858Z,68.40
2019-03-20T10:42:35.994Z,68.80
2019-03-20T10:44:37.146Z,68.40
2019-03-20T10:46:38.293Z,70.70
2019-03-20T10:48:39.523Z,69.50
2019-03-20T10:50:40.707Z,70.00
2019-03-20T10:52:41.841Z,69.70
2019-03-20T10:54:43.000Z,70.20
2019-03-20T10:56:44.152Z,69.60
2019-03-20T10:58:45.298Z,70.40
2019-03-20T11:00:46.457Z,71.10
2019-03-20T11:02:47.600Z,71.10
2019-03-20T11:04:48.749Z,70.30
2019-03-20T11:06:49.981Z,71.30
2019-03-20T11:08:51.132Z,70.90
2019-03-20T11:10:52.374Z,70.40
2019-03-20T11:12:53.713Z,70.70
2019-03-20T11:14:54.944Z,70.90
2019-03-20T11:16:56.197Z,71.90
2019-03-20T11:18:57.343Z,71.50
2019-03-20T11:20:58.487Z,71.40
2019-03-20T11:22:59.759Z,71.90
2019-03-20T11:25:00.929Z,71.70
2019-03-20T11:27:02.426Z,71.70
2019-03-20T11:29:03.593Z,71.60
2019-03-20T11:31:04.834Z,71.40
2019-03-20T11:33:06.296Z,72.40
2019-03-20T11:35:07.642Z,71.40
2019-03-20T11:37:08.917Z,71.40
2019-03-20T11:39:10.309Z,71.40
2019-03-20T11:41:11.497Z,71.80
2019-03-20T11:43:12.635Z,71.30
2019-03-20T11:45:13.865Z,71.70
2019-03-20T11:47:15.018Z,71.40
2019-03-20T11:49:16.485Z,71.70
2019-03-20T11:51:17.748Z,71.30
2019-03-20T11:53:19.049Z,71.90
2019-03-20T11:55:20.198Z,71.90
2019-03-20T11:57:21.772Z,71.30
2019-03-20T11:59:22.866Z,71.30
2019-03-20T12:01:24.838Z,71.40
2019-03-20T12:03:26.283Z,71.70
2019-03-20T12:05:27.432Z,71.90
2019-03-20T12:07:28.566Z,71.30
2019-03-20T12:09:40.466Z,70.70
2019-03-20T12:11:33.089Z,70.20
2019-03-20T12:13:34.225Z,70.90
2019-03-20T12:15:35.413Z,71.10
2019-03-20T12:17:36.554Z,71.30
2019-03-20T12:19:44.827Z,71.30
2019-03-20T12:21:40.749Z,71.30
2019-03-20T12:23:42.198Z,71.90
2019-03-20T12:25:43.733Z,72.90
2019-03-20T12:27:45.969Z,71.90
2019-03-20T12:29:47.445Z,71.80
2019-03-20T12:31:48.602Z,72.50
2019-03-20T12:33:49.845Z,71.60
2019-03-20T12:35:51.001Z,71.60
2019-03-20T12:37:52.133Z,71.70
2019-03-20T12:39:53.744Z,72.00
2019-03-20T12:41:55.205Z,71.70
2019-03-20T12:43:56.654Z,71.30
2019-03-20T12:45:58.259Z,72.20
2019-03-20T12:47:59.730Z,72.00
2019-03-20T12:50:00.870Z,71.10
2019-03-20T12:52:02.030Z,71.40
2019-03-20T12:54:03.167Z,70.40
2019-03-20T12:56:04.325Z,71.40
2019-03-20T12:58:05.469Z,72.00
2019-03-20T13:00:12.855Z,71.30
2019-03-20T13:02:14.085Z,71.40
2019-03-20T13:04:15.306Z,71.20
2019-03-20T13:06:16.455Z,71.40
2019-03-20T13:08:17.592Z,72.30
2019-03-20T13:10:21.482Z,71.90
2019-03-20T13:12:22.731Z,72.40
2019-03-20T13:14:24.119Z,72.10
2019-03-20T13:16:25.270Z,72.00
2019-03-20T13:18:26.661Z,71.80
2019-03-20T13:20:28.051Z,71.20
2019-03-20T13:22:29.188Z,72.60
2019-03-20T13:24:30.472Z,71.10
2019-03-20T13:26:31.633Z,71.60
2019-03-20T13:28:32.777Z,71.60
2019-03-20T13:30:48.885Z,71.20
2019-03-20T13:32:49.879Z,72.90
2019-03-20T13:34:51.022Z,71.50
2019-03-20T13:36:52.203Z,71.90
2019-03-20T13:38:53.342Z,72.60
2019-03-20T13:40:54.482Z,72.20
2019-03-20T13:42:55.730Z,72.40
2019-03-20T13:44:56.935Z,72.40
2019-03-20T13:46:58.119Z,71.80
2019-03-20T13:48:59.254Z,72.30
2019-03-20T13:51:00.398Z,73.50
2019-03-20T13:53:01.854Z,73.40
2019-03-20T13:55:05.593Z,72.50
2019-03-20T13:57:07.011Z,72.90
2019-03-20T13:59:08.411Z,72.80
2019-03-20T14:01:09.550Z,72.80
2019-03-20T14:03:10.801Z,72.70
2019-03-20T14:05:12.335Z,73.50
2019-03-20T14:07:13.481Z,72.50
2019-03-20T14:09:14.702Z,72.90
2019-03-20T14:11:15.846Z,73.60
2019-03-20T14:13:17.092Z,72.30
2019-03-20T14:15:19.179Z,73.70
2019-03-20T14:17:20.329Z,73.20
2019-03-20T14:19:21.535Z,73.90
2019-03-20T14:21:22.676Z,73.90
2019-03-20T14:23:23.826Z,73.90
2019-03-20T14:25:25.276Z,74.10
2019-03-20T14:27:26.717Z,74.20
2019-03-20T14:29:28.114Z,73.70
2019-03-20T14:31:29.713Z,73.80
2019-03-20T14:33:31.265Z,74.90
2019-03-20T14:35:32.510Z,74.70
2019-03-20T14:37:33.738Z,73.50
2019-03-20T14:39:34.977Z,73.10
2019-03-20T14:41:36.368Z,74.00
2019-03-20T14:43:37.517Z,73.80
2019-03-20T14:45:38.921Z,73.50
2019-03-20T14:47:42.317Z,72.60
2019-03-20T14:49:43.245Z,73.20
2019-03-20T14:51:44.402Z,73.40
2019-03-20T14:53:45.566Z,73.20
2019-03-20T14:55:46.976Z,73.70
2019-03-20T14:57:48.130Z,73.50
2019-03-20T14:59:49.285Z,73.30
2019-03-20T15:01:50.674Z,73.70
2019-03-20T15:03:52.151Z,74.00
2019-03-20T15:05:53.293Z,73.60
2019-03-20T15:07:54.499Z,73.60
2019-03-20T15:09:55.653Z,73.30
2019-03-20T15:11:56.798Z,74.00
2019-03-20T15:13:58.306Z,73.80
2019-03-20T15:16:06.253Z,74.80
2019-03-20T15:18:07.397Z,74.80
2019-03-20T15:20:08.637Z,74.80
2019-03-20T15:22:10.018Z,75.30
2019-03-20T15:24:11.177Z,75.10
2019-03-20T15:26:12.313Z,73.60
2019-03-20T15:28:13.772Z,73.90
2019-03-20T15:30:18.341Z,74.10
2019-03-20T15:32:19.494Z,74.50
2019-03-20T15:34:20.649Z,73.80
2019-03-20T15:36:21.867Z,73.50
2019-03-20T15:38:23.009Z,74.70
2019-03-20T15:40:25.451Z,73.60
2019-03-20T15:42:26.597Z,74.50
2019-03-20T15:44:27.841Z,75.00
2019-03-20T15:46:29.066Z,75.20
2019-03-20T15:48:30.230Z,75.50
2019-03-20T15:50:31.376Z,74.80
2019-03-20T15:52:32.505Z,75.00
2019-03-20T15:54:33.658Z,75.60
2019-03-20T15:56:34.809Z,75.70
2019-03-20T15:58:35.958Z,75.50
2019-03-20T16:00:37.101Z,75.70
2019-03-20T16:02:38.254Z,75.80
2019-03-20T16:04:39.419Z,76.00
2019-03-20T16:06:40.574Z,76.00
2019-03-20T16:08:41.817Z,75.80
2019-03-20T16:10:42.989Z,75.60
2019-03-20T16:12:44.121Z,75.90
2019-03-20T16:14:45.566Z,76.00
2019-03-20T16:16:46.784Z,76.20
2019-03-20T16:18:47.932Z,76.50
2019-03-20T16:20:49.078Z,76.30
2019-03-20T16:22:50.221Z,76.80
2019-03-20T16:24:51.365Z,76.30
2019-03-20T16:26:55.453Z,77.00
2019-03-20T16:28:56.797Z,76.80
2019-03-20T16:30:57.949Z,77.00
2019-03-20T16:32:59.153Z,77.40
2019-03-20T16:35:00.433Z,77.00
2019-03-20T16:37:01.577Z,77.60
2019-03-20T16:39:05.731Z,77.10
2019-03-20T16:41:16.447Z,77.70
2019-03-20T16:43:10.373Z,77.30
2019-03-20T16:45:27.185Z,77.80
2019-03-20T16:47:28.353Z,77.40
2019-03-20T16:49:29.623Z,77.30
2019-03-20T16:51:30.883Z,77.00
2019-03-20T16:53:32.178Z,77.20
2019-03-20T16:55:33.330Z,77.60
2019-03-20T16:57:34.485Z,77.60
2019-03-20T16:59:35.634Z,77.40
2019-03-20T17:01:36.909Z,78.10
2019-03-20T17:03:38.198Z,78.40
2019-03-20T17:05:39.426Z,78.50
2019-03-20T17:07:40.730Z,78.50
2019-03-20T17:09:41.957Z,78.60
2019-03-20T17:11:43.092Z,78.70
2019-03-20T17:13:44.231Z,78.60
2019-03-20T17:15:45.440Z,79.00
2019-03-20T17:17:46.577Z,79.30
2019-03-20T17:19:47.826Z,79.20
2019-03-20T17:21:48.973Z,79.20
2019-03-20T17:23:50.231Z,79.60
2019-03-20T17:25:51.421Z,79.80
2019-03-20T17:27:52.604Z,79.90
2019-03-20T17:29:53.813Z,80.10
2019-03-20T17:31:54.865Z,80.20
2019-03-20T17:33:56.001Z,80.30
2019-03-20T17:35:57.153Z,80.80
2019-03-20T17:37:58.622Z,82.10
2019-03-20T17:40:00.063Z,81.20
2019-03-20T17:42:01.293Z,81.40
2019-03-20T17:44:03.437Z,81.70
2019-03-20T17:46:04.753Z,81.90
2019-03-20T17:48:05.943Z,81.70
2019-03-20T17:50:13.749Z,82.00
2019-03-20T17:52:14.982Z,82.20
2019-03-20T17:54:16.131Z,82.30
2019-03-20T17:56:17.366Z,82.50
2019-03-20T17:58:18.625Z,82.60
2019-03-20T18:00:27.422Z,82.90
2019-03-20T18:02:28.630Z,83.00
2019-03-20T18:04:29.773Z,83.30
2019-03-20T18:06:30.925Z,83.30
2019-03-20T18:08:32.152Z,82.90
2019-03-20T18:10:33.428Z,83.20
2019-03-20T18:12:34.734Z,83.10
2019-03-20T18:14:36.873Z,83.00
2019-03-20T18:16:38.076Z,83.00
2019-03-20T18:18:39.310Z,83.10
2019-03-20T18:20:40.596Z,83.40
2019-03-20T18:22:41.873Z,83.20
2019-03-20T18:24:43.141Z,83.30
2019-03-20T18:26:44.386Z,83.50
2019-03-20T18:28:45.598Z,83.80
2019-03-20T18:30:46.753Z,83.90
2019-03-20T18:32:47.908Z,83.80
2019-03-20T18:34:49.081Z,84.00
2019-03-20T18:36:52.134Z,83.80
2019-03-20T18:38:53.546Z,83.60
2019-03-20T18:40:54.813Z,83.50
2019-03-20T18:42:56.273Z,83.40
2019-03-20T18:44:57.485Z,83.80
2019-03-20T18:46:58.776Z,84.00
2019-03-20T18:48:59.974Z,84.10
2019-03-20T18:51:01.127Z,84.10
2019-03-20T18:53:02.464Z,84.60
2019-03-20T18:55:07.122Z,84.60
2019-03-20T18:57:08.291Z,84.60
2019-03-20T18:59:09.444Z,84.50
2019-03-20T19:01:16.360Z,84.30
2019-03-20T19:03:26.799Z,84.30
2019-03-20T19:05:50.126Z,84.50
2019-03-20T19:07:51.523Z,84.70
2019-03-20T19:09:52.834Z,84.70
2019-03-20T19:11:54.281Z,85.00
2019-03-20T19:13:55.462Z,85.10
2019-03-20T19:15:56.694Z,85.30
2019-03-20T19:17:58.125Z,85.40
2019-03-20T19:19:59.269Z,85.10
2019-03-20T19:22:00.424Z,85.20
2019-03-20T19:24:01.583Z,85.30
2019-03-20T19:26:03.138Z,85.40
2019-03-20T19:28:04.275Z,86.30
2019-03-20T19:30:20.182Z,85.60
2019-03-20T19:32:21.633Z,85.70
2019-03-20T19:34:22.823Z,85.50
2019-03-20T19:36:23.987Z,85.50
2019-03-20T19:38:34.488Z,85.70
2019-03-20T19:40:28.248Z,85.50
2019-03-20T19:42:29.477Z,85.70
2019-03-20T19:44:30.674Z,85.70
2019-03-20T19:46:31.920Z,85.70
2019-03-20T19:48:33.340Z,85.90
2019-03-20T19:50:34.509Z,85.70
2019-03-20T19:52:35.818Z,85.70
2019-03-20T19:54:36.994Z,85.70
2019-03-20T19:56:38.165Z,85.90
2019-03-20T19:58:39.310Z,86.00
2019-03-20T20:00:40.495Z,86.10
2019-03-20T20:02:41.894Z,86.20
2019-03-20T20:04:43.070Z,86.50
2019-03-20T20:06:44.302Z,86.50
2019-03-20T20:08:45.436Z,86.70
2019-03-20T20:10:46.585Z,86.90
2019-03-20T20:12:47.836Z,87.10
2019-03-20T20:14:48.982Z,87.00
2019-03-20T20:16:50.282Z,87.20
2019-03-20T20:18:51.429Z,87.20
2019-03-20T20:20:52.601Z,87.20
2019-03-20T20:22:53.758Z,87.50
2019-03-20T20:24:54.889Z,87.50
2019-03-20T20:26:56.038Z,87.60
2019-03-20T20:28:57.261Z,87.50
2019-03-20T20:30:58.409Z,87.60
2019-03-20T20:32:59.608Z,87.70
2019-03-20T20:35:01.210Z,87.60
2019-03-20T20:37:02.358Z,87.60
2019-03-20T20:39:05.103Z,87.90
2019-03-20T20:41:06.252Z,88.00
2019-03-20T20:43:07.398Z,88.80
2019-03-20T20:45:09.877Z,88.40
2019-03-20T20:47:11.030Z,88.40
2019-03-20T20:49:12.226Z,88.10
2019-03-20T20:51:14.677Z,88.20
2019-03-20T20:53:15.842Z,88.20
2019-03-20T20:55:21.206Z,88.20
2019-03-20T20:57:22.386Z,88.10
2019-03-20T20:59:23.586Z,88.20
2019-03-20T21:01:24.849Z,88.20
2019-03-20T21:03:26.002Z,89.00
2019-03-20T21:05:27.173Z,88.10
2019-03-20T21:07:28.326Z,88.00
2019-03-20T21:09:29.555Z,88.00
2019-03-20T21:11:30.714Z,88.00
2019-03-20T21:13:31.865Z,88.00
2019-03-20T21:15:38.628Z,87.90
2019-03-20T21:17:43.617Z,87.70
2019-03-20T21:19:44.778Z,87.70
2019-03-20T21:21:49.730Z,87.70
2019-03-20T21:24:22.897Z,87.90
2019-03-20T21:26:33.617Z,88.10
2019-03-20T21:29:10.322Z,88.10
2019-03-20T21:31:12.989Z,88.30
2019-03-20T21:33:17.942Z,88.30
2019-03-20T21:35:39.577Z,88.30
2019-03-20T21:37:53.220Z,88.40
2019-03-20T21:39:54.366Z,88.60
2019-03-20T21:42:07.840Z,88.60
2019-03-20T21:44:18.950Z,88.20
2019-03-20T21:46:47.077Z,87.60
2019-03-20T21:48:48.226Z,87.60
2019-03-20T21:50:53.493Z,87.30
2019-03-20T21:52:54.657Z,87.20
2019-03-20T21:55:17.177Z,87.20
2019-03-20T21:57:43.242Z,87.00
2019-03-20T22:00:12.207Z,87.00
2019-03-20T22:02:44.672Z,86.50
2019-03-20T22:04:45.832Z,87.30
2019-03-20T22:07:07.918Z,86.40
2019-03-20T22:09:10.978Z,86.60
2019-03-20T22:11:30.477Z,87.30
2019-03-20T22:13:38.603Z,87.40
2019-03-20T22:15:48.861Z,87.30
2019-03-20T22:18:22.789Z,87.20
2019-03-20T22:20:30.762Z,86.40
2019-03-20T22:22:38.787Z,85.60
2019-03-20T22:25:05.368Z,85.30
2019-03-20T22:27:10.327Z,85.00
2019-03-20T22:29:19.122Z,84.90
2019-03-20T22:31:20.365Z,85.10
2019-03-20T22:33:58.882Z,85.00
2019-03-20T22:36:00.025Z,85.20
2019-03-20T22:38:04.377Z,85.20
2019-03-20T22:40:15.193Z,85.10
2019-03-20T22:42:20.291Z,85.10
2019-03-20T22:44:22.130Z,85.20
2019-03-20T22:46:38.960Z,85.30
2019-03-20T22:49:04.858Z,85.90
2019-03-20T22:51:18.677Z,86.00
2019-03-20T22:53:46.298Z,86.30
2019-03-20T22:56:12.022Z,87.00
2019-03-20T22:58:42.440Z,87.50
2019-03-20T23:00:47.183Z,87.90
2019-03-20T23:03:00.894Z,88.80
2019-03-20T23:05:03.642Z,88.70
2019-03-20T23:07:04.853Z,88.50
2019-03-20T23:09:06.904Z,88.50
2019-03-20T23:11:08.381Z,89.60
2019-03-20T23:13:18.552Z,89.40
2019-03-20T23:15:15.483Z,89.00
2019-03-20T23:17:17.014Z,89.40
2019-03-20T23:19:18.169Z,89.50
2019-03-20T23:21:19.309Z,90.10
2019-03-20T23:23:20.500Z,90.30
2019-03-20T23:25:21.665Z,90.40
2019-03-20T23:27:24.510Z,90.60
2019-03-20T23:29:25.773Z,90.80
2019-03-20T23:31:26.922Z,90.90
2019-03-20T23:33:28.171Z,90.90
2019-03-20T23:35:29.312Z,90.90
2019-03-20T23:37:30.513Z,91.10
2019-03-20T23:39:31.919Z,91.20
2019-03-20T23:41:33.066Z,91.10
2019-03-20T23:43:34.193Z,91.00
2019-03-20T23:45:35.340Z,91.20
2019-03-20T23:47:40.321Z,91.20
2019-03-20T23:49:41.493Z,91.30
2019-03-20T23:51:42.766Z,91.70
2019-03-20T23:53:46.199Z,91.30
2019-03-20T23:55:47.383Z,91.30
2019-03-20T23:57:48.612Z,91.30
2019-03-20T23:59:49.765Z,91.40
